createdAt,value
2019-04-06T00:01:50.531Z,101404.24
2019-04-06T00:04:20.698Z,101401.44
2019-04-06T00:06:50.924Z,101404.20
2019-04-06T00:09:21.127Z,101401.17
2019-04-06T00:11:51.305Z,101402.91
2019-04-06T00:14:21.483Z,101405.63
2019-04-06T00:16:51.646Z,101395.95
2019-04-06T00:19:21.842Z,101404.17
2019-04-06T00:21:54.328Z,101402.63
2019-04-06T00:24:24.515Z,101404.19
2019-04-06T00:26:56.482Z,101400.66
2019-04-06T00:29:32.444Z,101402.99
2019-04-06T00:32:26.648Z,101398.29
2019-04-06T00:34:56.832Z,101396.00
2019-04-06T00:37:26.994Z,101401.41
2019-04-06T00:39:57.157Z,101400.72
2019-04-06T00:42:27.308Z,101399.70
2019-04-06T00:44:57.520Z,101400.16
2019-04-06T00:47:27.722Z,101400.58
2019-04-06T00:49:57.929Z,101396.77
2019-04-06T00:52:28.144Z,101393.30
2019-04-06T00:54:58.388Z,101394.71
2019-04-06T00:57:29.492Z,101396.95
2019-04-06T00:59:59.767Z,101392.52
2019-04-06T01:02:33.044Z,101397.41
2019-04-06T01:05:05.720Z,101392.10
2019-04-06T01:07:38.993Z,101390.82
2019-04-06T01:10:09.204Z,101389.95
2019-04-06T01:12:39.384Z,101392.97
2019-04-06T01:15:11.057Z,101393.43
2019-04-06T01:17:41.255Z,101393.39
2019-04-06T01:20:12.493Z,101388.03
2019-04-06T01:22:42.648Z,101391.05
2019-04-06T01:25:14.135Z,101382.27
2019-04-06T01:27:44.290Z,101387.75
2019-04-06T01:30:18.252Z,101379.83
2019-04-06T01:32:48.411Z,101382.08
2019-04-06T01:35:18.694Z,101388.71
2019-04-06T01:37:48.909Z,101387.75
2019-04-06T01:40:20.602Z,101382.90
2019-04-06T01:42:50.764Z,101380.20
2019-04-06T01:45:23.659Z,101376.17
2019-04-06T01:47:57.796Z,101381.02
2019-04-06T01:50:27.994Z,101379.01
2019-04-06T01:52:58.189Z,101379.47
2019-04-06T01:55:28.372Z,101376.48
2019-04-06T01:57:58.540Z,101373.66
2019-04-06T02:00:28.721Z,101376.48
2019-04-06T02:02:58.891Z,101377.48
2019-04-06T02:05:29.152Z,101375.33
2019-04-06T02:08:01.597Z,101374.50
2019-04-06T02:10:31.772Z,101375.45
2019-04-06T02:13:01.923Z,101379.52
2019-04-06T02:15:35.013Z,101380.89
2019-04-06T02:18:06.105Z,101382.77
2019-04-06T02:20:36.834Z,101381.98
2019-04-06T02:23:07.065Z,101377.13
2019-04-06T02:25:39.083Z,101378.49
2019-04-06T02:28:09.144Z,101378.03
2019-04-06T02:30:44.772Z,101373.65
2019-04-06T02:33:42.895Z,101375.88
2019-04-06T02:36:32.081Z,101378.12
2019-04-06T02:39:11.840Z,101378.25
2019-04-06T02:41:50.263Z,101377.34
2019-04-06T02:44:20.488Z,101376.55
2019-04-06T02:46:51.156Z,101377.13
2019-04-06T02:49:21.807Z,101380.69
2019-04-06T02:51:52.215Z,101385.53
2019-04-06T02:54:22.416Z,101386.62
2019-04-06T02:56:52.740Z,101381.80
2019-04-06T02:59:24.383Z,101388.93
2019-04-06T03:01:54.780Z,101390.75
2019-04-06T03:04:24.995Z,101389.92
2019-04-06T03:06:55.233Z,101380.64
2019-04-06T03:09:25.445Z,101381.22
2019-04-06T03:11:56.233Z,101385.31
2019-04-06T03:14:27.672Z,101388.49
2019-04-06T03:16:57.870Z,101395.61
2019-04-06T03:19:28.468Z,101394.28
2019-04-06T03:21:58.646Z,101389.52
2019-04-06T03:24:28.812Z,101385.13
2019-04-06T03:27:01.734Z,101384.75
2019-04-06T03:29:30.913Z,101380.13
2019-04-06T03:32:01.380Z,101389.37
2019-04-06T03:34:33.459Z,101386.37
2019-04-06T03:37:07.576Z,101385.66
2019-04-06T03:39:39.061Z,101380.02
2019-04-06T03:42:11.099Z,101381.45
2019-04-06T03:44:41.069Z,101382.84
2019-04-06T03:47:11.283Z,101379.47
2019-04-06T03:49:41.680Z,101379.92
2019-04-06T03:52:13.345Z,101373.80
2019-04-06T03:54:43.534Z,101376.59
2019-04-06T03:57:17.081Z,101382.41
2019-04-06T03:59:47.902Z,101377.88
2019-04-06T04:02:18.096Z,101379.78
2019-04-06T04:04:48.293Z,101382.92
2019-04-06T04:07:18.437Z,101384.30
2019-04-06T04:09:48.722Z,101381.70
2019-04-06T04:12:18.912Z,101384.83
2019-04-06T04:14:51.299Z,101383.56
2019-04-06T04:17:28.309Z,101386.21
2019-04-06T04:20:03.440Z,101384.18
2019-04-06T04:22:43.125Z,101384.25
2019-04-06T04:25:19.854Z,101390.12
2019-04-06T04:27:55.597Z,101392.28
2019-04-06T04:30:35.298Z,101389.15
2019-04-06T04:33:12.340Z,101395.34
2019-04-06T04:35:51.858Z,101393.09
2019-04-06T04:38:25.646Z,101390.34
2019-04-06T04:41:00.401Z,101392.98
2019-04-06T04:43:36.180Z,101389.73
2019-04-06T04:46:11.885Z,101387.50
2019-04-06T04:48:51.378Z,101391.70
2019-04-06T04:51:28.949Z,101396.41
2019-04-06T04:54:00.921Z,101384.47
2019-04-06T04:56:34.423Z,101386.50
2019-04-06T04:59:10.656Z,101390.41
2019-04-06T05:01:50.363Z,101385.59
2019-04-06T05:04:23.491Z,101390.30
2019-04-06T05:06:56.025Z,101382.51
2019-04-06T05:09:31.017Z,101389.27
2019-04-06T05:12:08.086Z,101385.42
2019-04-06T05:15:06.510Z,101391.94
2019-04-06T05:17:38.224Z,101391.53
2019-04-06T05:20:14.948Z,101398.03
2019-04-06T05:22:47.366Z,101389.59
2019-04-06T05:25:19.848Z,101393.00
2019-04-06T05:27:52.478Z,101393.11
2019-04-06T05:30:22.247Z,101389.08
2019-04-06T05:32:54.172Z,101393.52
2019-04-06T05:35:26.528Z,101396.14
2019-04-06T05:37:56.870Z,101402.35
2019-04-06T05:40:31.277Z,101404.80
2019-04-06T05:43:05.050Z,101403.20
2019-04-06T05:45:40.452Z,101401.37
2019-04-06T05:48:15.703Z,101399.95
2019-04-06T05:50:55.566Z,101399.02
2019-04-06T05:53:32.753Z,101397.30
2019-04-06T05:56:10.593Z,101398.63
2019-04-06T05:58:47.617Z,101397.75
2019-04-06T06:01:24.715Z,101398.02
2019-04-06T06:03:59.413Z,101403.33
2019-04-06T06:06:30.605Z,101408.49
2019-04-06T06:09:11.148Z,101399.68
2019-04-06T06:11:45.566Z,101398.09
2019-04-06T06:14:21.837Z,101402.70
2019-04-06T06:16:56.506Z,101404.36
2019-04-06T06:19:33.545Z,101406.30
2019-04-06T06:22:13.936Z,101404.43
2019-04-06T06:24:54.594Z,101408.03
2019-04-06T06:27:30.935Z,101412.30
2019-04-06T06:30:07.992Z,101410.70
2019-04-06T06:32:46.942Z,101415.88
2019-04-06T06:35:19.717Z,101411.87
2019-04-06T06:37:50.664Z,101406.00
2019-04-06T06:40:22.596Z,101407.79
2019-04-06T06:42:53.795Z,101405.48
2019-04-06T06:45:24.725Z,101400.36
2019-04-06T06:47:55.535Z,101402.22
2019-04-06T06:50:26.197Z,101405.89
2019-04-06T06:52:57.094Z,101399.58
2019-04-06T06:55:27.893Z,101398.91
2019-04-06T06:57:58.594Z,101399.85
2019-04-06T07:00:29.230Z,101396.95
2019-04-06T07:03:00.214Z,101402.13
2019-04-06T07:05:31.013Z,101395.42
2019-04-06T07:08:01.928Z,101394.22
2019-04-06T07:10:32.795Z,101398.56
2019-04-06T07:13:03.456Z,101393.46
2019-04-06T07:15:34.042Z,101397.16
2019-04-06T07:18:05.100Z,101401.01
2019-04-06T07:20:36.027Z,101400.12
2019-04-06T07:23:06.673Z,101404.03
2019-04-06T07:25:37.805Z,101397.94
2019-04-06T07:28:08.656Z,101405.22
2019-04-06T07:30:39.447Z,101405.28
2019-04-06T07:33:11.112Z,101405.57
2019-04-06T07:35:42.158Z,101405.53
2019-04-06T07:38:12.955Z,101403.34
2019-04-06T07:40:43.888Z,101401.64
2019-04-06T07:43:16.927Z,101394.35
2019-04-06T07:45:47.602Z,101400.15
2019-04-06T07:48:18.261Z,101387.44
2019-04-06T07:50:49.360Z,101392.23
2019-04-06T07:53:20.180Z,101393.59
2019-04-06T07:55:51.127Z,101393.83
2019-04-06T07:58:22.183Z,101387.30
2019-04-06T08:00:52.744Z,101389.70
2019-04-06T08:03:24.763Z,101387.31
2019-04-06T08:05:55.623Z,101382.16
2019-04-06T08:08:28.618Z,101390.48
2019-04-06T08:10:59.313Z,101384.65
2019-04-06T08:13:30.021Z,101390.94
2019-04-06T08:16:00.919Z,101388.25
2019-04-06T08:18:32.429Z,101391.13
2019-04-06T08:21:03.258Z,101382.11
2019-04-06T08:23:34.313Z,101389.31
2019-04-06T08:26:05.214Z,101384.17
2019-04-06T08:28:35.944Z,101378.54
2019-04-06T08:31:06.711Z,101377.11
2019-04-06T08:33:37.539Z,101381.08
2019-04-06T08:36:08.131Z,101377.52
2019-04-06T08:38:38.917Z,101381.94
2019-04-06T08:41:09.837Z,101377.11
2019-04-06T08:43:40.883Z,101373.55
2019-04-06T08:46:11.701Z,101375.95
2019-04-06T08:48:42.373Z,101377.88
2019-04-06T08:51:13.714Z,101368.31
2019-04-06T08:53:45.171Z,101375.34
2019-04-06T08:56:16.005Z,101380.79
2019-04-06T08:58:47.027Z,101369.62
2019-04-06T09:01:17.915Z,101365.69
2019-04-06T09:03:48.651Z,101364.40
2019-04-06T09:06:19.821Z,101360.89
2019-04-06T09:08:51.681Z,101364.63
2019-04-06T09:11:22.499Z,101361.86
2019-04-06T09:13:54.030Z,101363.17
2019-04-06T09:16:25.570Z,101356.59
2019-04-06T09:18:59.762Z,101358.13
2019-04-06T09:21:32.194Z,101356.53
2019-04-06T09:24:03.165Z,101355.67
2019-04-06T09:26:34.209Z,101360.69
2019-04-06T09:29:05.192Z,101360.95
2019-04-06T09:31:37.348Z,101344.42
2019-04-06T09:34:09.227Z,101338.73
2019-04-06T09:36:41.113Z,101334.60
2019-04-06T09:39:12.234Z,101336.31
2019-04-06T09:41:42.816Z,101331.89
2019-04-06T09:44:22.855Z,101331.66
2019-04-06T09:47:06.345Z,101334.50
2019-04-06T09:49:51.502Z,101333.45
2019-04-06T09:52:39.369Z,101333.45
2019-04-06T09:55:23.596Z,101319.84
2019-04-06T09:58:03.490Z,101322.92
2019-04-06T10:00:53.583Z,101329.00
2019-04-06T10:03:41.939Z,101321.78
2019-04-06T10:06:32.269Z,101326.45
2019-04-06T10:09:17.557Z,101315.53
2019-04-06T10:12:13.338Z,101317.27
2019-04-06T10:15:09.472Z,101315.16
2019-04-06T10:17:59.035Z,101314.29
2019-04-06T10:20:49.884Z,101312.08
2019-04-06T10:23:40.045Z,101302.67
2019-04-06T10:26:45.090Z,101296.90
2019-04-06T10:29:33.434Z,101298.36
2019-04-06T10:32:29.039Z,101300.34
2019-04-06T10:35:27.939Z,101297.22
2019-04-06T10:38:23.913Z,101292.97
2019-04-06T10:41:23.050Z,101289.77
2019-04-06T10:44:16.119Z,101288.42
2019-04-06T10:47:04.659Z,101287.69
2019-04-06T10:49:44.804Z,101283.82
2019-04-06T10:52:40.678Z,101284.66
2019-04-06T10:55:29.506Z,101276.48
2019-04-06T10:58:17.960Z,101283.91
2019-04-06T11:01:06.771Z,101277.48
2019-04-06T11:03:56.929Z,101280.18
2019-04-06T11:07:04.653Z,101274.09
2019-04-06T11:09:58.992Z,101284.13
2019-04-06T11:12:58.411Z,101279.78
2019-04-06T11:15:47.696Z,101279.67
2019-04-06T11:18:36.338Z,101276.78
2019-04-06T11:21:34.969Z,101289.86
2019-04-06T11:24:27.757Z,101285.62
2019-04-06T11:27:14.609Z,101282.50
2019-04-06T11:30:13.168Z,101282.27
2019-04-06T11:33:01.610Z,101286.72
2019-04-06T11:35:50.317Z,101226.70
2019-04-06T11:38:39.139Z,101291.76
2019-04-06T11:41:27.631Z,101279.47
2019-04-06T11:44:18.646Z,101288.64
2019-04-06T11:47:07.082Z,101279.06
2019-04-06T11:50:00.420Z,101276.11
2019-04-06T11:52:49.159Z,101277.95
2019-04-06T11:55:39.464Z,101273.81
2019-04-06T11:58:29.463Z,101273.66
2019-04-06T12:01:07.103Z,101279.81
2019-04-06T12:03:55.880Z,101284.98
2019-04-06T12:07:00.815Z,101269.09
2019-04-06T12:09:47.243Z,101264.56
2019-04-06T12:12:36.149Z,101263.95
2019-04-06T12:15:26.232Z,101259.14
2019-04-06T12:18:13.498Z,101257.41
2019-04-06T12:21:15.335Z,101264.28
2019-04-06T12:24:11.817Z,101255.00
2019-04-06T12:27:20.980Z,101258.66
2019-04-06T12:30:36.686Z,101257.30
2019-04-06T12:33:24.341Z,101245.64
2019-04-06T12:36:24.443Z,101241.25
2019-04-06T12:39:15.586Z,101240.87
2019-04-06T12:42:22.925Z,101233.37
2019-04-06T12:45:19.331Z,101241.95
2019-04-06T12:48:30.628Z,101246.94
2019-04-06T12:51:28.540Z,101228.03
2019-04-06T12:54:18.644Z,101217.31
2019-04-06T12:57:08.747Z,101215.02
2019-04-06T13:00:08.337Z,101217.55
2019-04-06T13:03:05.719Z,101219.65
2019-04-06T13:05:55.613Z,101206.50
2019-04-06T13:08:44.538Z,101207.13
2019-04-06T13:11:38.396Z,101207.70
2019-04-06T13:14:29.588Z,101201.76
2019-04-06T13:17:39.066Z,101198.86
2019-04-06T13:20:27.190Z,101196.86
2019-04-06T13:23:20.025Z,101194.53
2019-04-06T13:26:09.903Z,101188.64
2019-04-06T13:29:04.806Z,101188.88
2019-04-06T13:32:17.860Z,101194.63
2019-04-06T13:35:01.770Z,101188.14
2019-04-06T13:37:51.461Z,101177.05
2019-04-06T13:40:46.212Z,101184.80
2019-04-06T13:43:39.574Z,101173.52
2019-04-06T13:46:38.132Z,101180.34
2019-04-06T13:49:30.886Z,101172.41
2019-04-06T13:52:09.565Z,101169.39
2019-04-06T13:55:08.110Z,101172.64
2019-04-06T13:58:13.376Z,101171.49
2019-04-06T14:01:25.270Z,101162.41
2019-04-06T14:04:18.240Z,101160.81
2019-04-06T14:07:17.017Z,101156.45
2019-04-06T14:10:12.338Z,101157.66
2019-04-06T14:13:19.025Z,101154.66
2019-04-06T14:16:12.380Z,101158.34
2019-04-06T14:19:02.028Z,101156.91
2019-04-06T14:21:51.088Z,101152.97
2019-04-06T14:24:43.489Z,101139.59
2019-04-06T14:27:37.342Z,101157.28
2019-04-06T14:30:22.928Z,101147.02
2019-04-06T14:33:21.728Z,101145.86
2019-04-06T14:36:23.469Z,101145.06
2019-04-06T14:39:31.380Z,101137.12
2019-04-06T14:42:31.237Z,101128.73
2019-04-06T14:45:31.236Z,101137.78
2019-04-06T14:48:17.414Z,101131.31
2019-04-06T14:51:24.852Z,101125.05
2019-04-06T14:54:28.056Z,101118.27
2019-04-06T14:57:25.199Z,101126.16
2019-04-06T15:00:21.389Z,101130.17
2019-04-06T15:03:28.078Z,101123.48
2019-04-06T15:06:25.367Z,101125.00
2019-04-06T15:09:20.169Z,101115.68
2019-04-06T15:12:18.383Z,101102.91
2019-04-06T15:15:10.969Z,101109.27
2019-04-06T15:18:02.777Z,101101.41
2019-04-06T15:20:48.469Z,101109.86
2019-04-06T15:23:30.563Z,101104.55
2019-04-06T15:26:21.847Z,101100.45
2019-04-06T15:29:20.831Z,101099.64
2019-04-06T15:32:07.541Z,101106.80
2019-04-06T15:35:15.326Z,101099.43
2019-04-06T15:38:07.285Z,101095.88
2019-04-06T15:41:13.714Z,101093.92
2019-04-06T15:44:10.467Z,101101.52
2019-04-06T15:46:54.301Z,101093.86
2019-04-06T15:50:04.529Z,101097.90
2019-04-06T15:52:53.624Z,101100.14
2019-04-06T15:56:01.427Z,100971.66
2019-04-06T15:58:43.381Z,101098.66
2019-04-06T16:01:32.902Z,101093.58
2019-04-06T16:04:22.149Z,101099.53
2019-04-06T16:07:16.393Z,101093.78
2019-04-06T16:10:17.304Z,101090.76
2019-04-06T16:13:15.848Z,101092.13
2019-04-06T16:15:53.811Z,101094.43
2019-04-06T16:18:48.814Z,101088.88
2019-04-06T16:21:53.496Z,101092.81
2019-04-06T16:24:51.328Z,101081.30
2019-04-06T16:27:38.983Z,101072.20
2019-04-06T16:30:29.243Z,101080.89
2019-04-06T16:33:23.375Z,101084.87
2019-04-06T16:36:13.628Z,101083.02
2019-04-06T16:38:59.862Z,101079.99
2019-04-06T16:41:50.013Z,101080.56
2019-04-06T16:44:29.422Z,101080.66
2019-04-06T16:47:30.561Z,101079.25
2019-04-06T16:50:32.942Z,101080.12
2019-04-06T16:53:35.243Z,101079.34
2019-04-06T16:56:24.953Z,101078.30
2019-04-06T16:59:19.968Z,101080.20
2019-04-06T17:02:28.576Z,101078.12
2019-04-06T17:05:29.516Z,101082.27
2019-04-06T17:08:21.469Z,101079.55
2019-04-06T17:11:05.166Z,101084.46
2019-04-06T17:13:54.437Z,101085.69
2019-04-06T17:16:46.501Z,101078.97
2019-04-06T17:19:45.244Z,101079.75
2019-04-06T17:22:38.365Z,101075.64
2019-04-06T17:25:39.287Z,101085.58
2019-04-06T17:28:34.134Z,101084.25
2019-04-06T17:31:17.340Z,101086.37
2019-04-06T17:34:12.468Z,101082.88
2019-04-06T17:37:07.371Z,101084.44
2019-04-06T17:40:12.191Z,101086.16
2019-04-06T17:43:15.780Z,101077.35
2019-04-06T17:46:10.923Z,101078.13
2019-04-06T17:49:02.511Z,101077.13
2019-04-06T17:51:51.895Z,101072.16
2019-04-06T17:54:31.108Z,101073.70
2019-04-06T17:57:26.170Z,101068.30
2019-04-06T18:00:18.505Z,101071.02
2019-04-06T18:03:16.443Z,101070.10
2019-04-06T18:06:13.405Z,101066.71
2019-04-06T18:09:34.414Z,101062.86
2019-04-06T18:12:52.897Z,101065.02
2019-04-06T18:15:31.470Z,101063.91
2019-04-06T18:18:04.517Z,101059.34
2019-04-06T18:20:50.603Z,101056.20
2019-04-06T18:23:39.305Z,101055.23
2019-04-06T18:26:26.352Z,101056.88
2019-04-06T18:29:06.166Z,101048.79
2019-04-06T18:32:02.980Z,101053.27
2019-04-06T18:34:43.455Z,101050.98
2019-04-06T18:37:43.352Z,101045.72
2019-04-06T18:40:30.556Z,101043.29
2019-04-06T18:43:09.712Z,101046.43
2019-04-06T18:45:47.708Z,101034.17
2019-04-06T18:48:31.630Z,101048.75
2019-04-06T18:51:06.893Z,101039.08
2019-04-06T18:53:56.585Z,101042.22
2019-04-06T18:56:42.405Z,101040.57
2019-04-06T18:59:23.238Z,101043.02
2019-04-06T19:02:01.112Z,101037.98
2019-04-06T19:04:34.683Z,101039.08
2019-04-06T19:07:15.330Z,101029.87
2019-04-06T19:09:54.727Z,101037.36
2019-04-06T19:12:30.339Z,101027.91
2019-04-06T19:15:02.366Z,101029.10
2019-04-06T19:17:54.351Z,101026.59
2019-04-06T19:20:30.715Z,101026.90
2019-04-06T19:23:05.665Z,101022.81
2019-04-06T19:25:43.299Z,101023.75
2019-04-06T19:28:18.722Z,101023.11
2019-04-06T19:31:08.052Z,101015.81
2019-04-06T19:33:55.895Z,101016.13
2019-04-06T19:36:34.016Z,101003.80
2019-04-06T19:39:09.672Z,101008.52
2019-04-06T19:41:42.816Z,100865.45
2019-04-06T19:44:13.529Z,101012.45
2019-04-06T19:46:46.498Z,101009.30
2019-04-06T19:49:19.565Z,101004.81
2019-04-06T19:51:55.806Z,101006.78
2019-04-06T19:54:36.638Z,101002.45
2019-04-06T19:57:09.019Z,100998.38
2019-04-06T19:59:43.218Z,101001.05
2019-04-06T20:02:15.865Z,101003.17
2019-04-06T20:04:48.849Z,100992.25
2019-04-06T20:07:22.935Z,100997.59
2019-04-06T20:09:57.961Z,100997.20
2019-04-06T20:12:32.447Z,100994.14
2019-04-06T20:15:03.981Z,100992.41
2019-04-06T20:17:41.035Z,100992.26
2019-04-06T20:20:16.089Z,100992.65
2019-04-06T20:22:48.753Z,100989.27
2019-04-06T20:25:27.525Z,100977.72
2019-04-06T20:28:01.272Z,100979.77
2019-04-06T20:30:34.095Z,100970.02
2019-04-06T20:33:12.042Z,100965.78
2019-04-06T20:35:50.765Z,100964.45
2019-04-06T20:38:29.016Z,100966.73
2019-04-06T20:41:12.198Z,100966.73
2019-04-06T20:43:44.890Z,100962.25
2019-04-06T20:46:22.301Z,100961.70
2019-04-06T20:49:00.117Z,100961.15
2019-04-06T20:51:35.935Z,100958.32
2019-04-06T20:54:14.212Z,100950.85
2019-04-06T20:57:12.026Z,100943.55
2019-04-06T20:59:53.845Z,100942.39
2019-04-06T21:02:27.848Z,100945.69
2019-04-06T21:05:00.350Z,100938.06
2019-04-06T21:07:39.398Z,100931.55
2019-04-06T21:10:17.109Z,100939.56
2019-04-06T21:12:54.151Z,100934.30
2019-04-06T21:15:35.806Z,100931.47
2019-04-06T21:18:20.035Z,100925.00
2019-04-06T21:20:56.507Z,100930.98
2019-04-06T21:23:35.114Z,100926.74
2019-04-06T21:26:19.174Z,100921.09
2019-04-06T21:28:58.440Z,100925.26
2019-04-06T21:31:32.818Z,100919.81
2019-04-06T21:34:12.108Z,100916.51
2019-04-06T21:36:46.136Z,100912.27
2019-04-06T21:39:23.927Z,100914.31
2019-04-06T21:41:55.400Z,100913.75
2019-04-06T21:44:33.266Z,100913.91
2019-04-06T21:47:12.442Z,100912.84
2019-04-06T21:49:46.737Z,100909.70
2019-04-06T21:52:21.601Z,100908.83
2019-04-06T21:55:04.938Z,100899.39
2019-04-06T21:57:43.640Z,100894.80
2019-04-06T22:00:28.193Z,100897.92
2019-04-06T22:03:08.862Z,100887.77
2019-04-06T22:05:46.442Z,100889.98
2019-04-06T22:08:20.422Z,100878.43
2019-04-06T22:10:57.228Z,100874.48
2019-04-06T22:13:32.871Z,100881.55
2019-04-06T22:16:13.074Z,100875.28
2019-04-06T22:18:46.563Z,100861.45
2019-04-06T22:21:21.597Z,100863.94
2019-04-06T22:23:55.402Z,100862.12
2019-04-06T22:26:30.934Z,100865.28
2019-04-06T22:29:03.876Z,100858.11
2019-04-06T22:31:39.201Z,100854.00
2019-04-06T22:34:16.160Z,100854.45
2019-04-06T22:36:48.867Z,100857.17
2019-04-06T22:39:25.188Z,100848.53
2019-04-06T22:41:59.803Z,100848.34
2019-04-06T22:44:37.170Z,100844.48
2019-04-06T22:47:16.174Z,100844.28
2019-04-06T22:49:49.711Z,100841.80
2019-04-06T22:52:25.105Z,100837.94
2019-04-06T22:55:02.506Z,100842.45
2019-04-06T22:57:38.666Z,100841.80
2019-04-06T23:00:13.388Z,100837.14
2019-04-06T23:03:00.409Z,100829.22
2019-04-06T23:05:41.553Z,100830.48
2019-04-06T23:08:19.975Z,100822.01
2019-04-06T23:10:53.112Z,100823.86
2019-04-06T23:13:24.426Z,100813.55
2019-04-06T23:16:01.065Z,100820.08
2019-04-06T23:18:37.680Z,100822.12
2019-04-06T23:21:13.902Z,100819.66
2019-04-06T23:23:48.626Z,100815.80
2019-04-06T23:26:21.889Z,100824.86
2019-04-06T23:29:01.784Z,100818.41
2019-04-06T23:31:41.764Z,100812.23
2019-04-06T23:34:18.035Z,100814.55
2019-04-06T23:36:55.720Z,100815.14
2019-04-06T23:39:33.102Z,100812.67
2019-04-06T23:42:08.849Z,100812.53
2019-04-06T23:44:46.824Z,100799.23
2019-04-06T23:47:20.613Z,100798.04
2019-04-06T23:49:57.623Z,100799.58
2019-04-06T23:52:33.305Z,100793.88
2019-04-06T23:55:12.245Z,100790.81
2019-04-06T23:57:47.781Z,100791.28
